sensor_id;sensor_type;location;lat;lon;timestamp;pressure;altitude;pressure_sealevel;temperature;humidity
65880;BME280;52661;51.364;6.054;2023-05-19T00:01:11;102189.06;;;10.71;97.90
65880;BME280;52661;51.364;6.054;2023-05-19T00:03:42;102183.53;;;10.67;98.54
65880;BME280;52661;51.364;6.054;2023-05-19T00:06:13;102188.81;;;10.60;98.73
65880;BME280;52661;51.364;6.054;2023-05-19T00:08:39;102184.28;;;10.49;98.97
65880;BME280;52661;51.364;6.054;2023-05-19T00:11:05;102183.28;;;10.57;99.07
65880;BME280;52661;51.364;6.054;2023-05-19T00:13:30;102180.31;;;10.62;99.26
65880;BME280;52661;51.364;6.054;2023-05-19T00:15:56;102180.56;;;10.57;98.65
65880;BME280;52661;51.364;6.054;2023-05-19T00:18:21;102183.75;;;10.43;100.00
65880;BME280;52661;51.364;6.054;2023-05-19T00:20:47;102181.81;;;10.44;99.75
65880;BME280;52661;51.364;6.054;2023-05-19T00:23:13;102183.75;;;10.43;100.00
65880;BME280;52661;51.364;6.054;2023-05-19T00:25:38;102177.09;;;10.41;100.00
65880;BME280;52661;51.364;6.054;2023-05-19T00:28:04;102177.09;;;10.41;100.00
65880;BME280;52661;51.364;6.054;2023-05-19T00:30:29;102175.34;;;10.48;100.00
65880;BME280;52661;51.364;6.054;2023-05-19T00:32:55;102179.28;;;10.35;100.00
65880;BME280;52661;51.364;6.054;2023-05-19T00:35:20;102183.84;;;10.31;100.00
65880;BME280;52661;51.364;6.054;2023-05-19T00:37:46;102179.47;;;10.26;100.00
65880;BME280;52661;51.364;6.054;2023-05-19T00:40:13;102179.72;;;10.37;100.00
65880;BME280;52661;51.364;6.054;2023-05-19T00:42:38;102181.31;;;10.38;100.00
65880;BME280;52661;51.364;6.054;2023-05-19T00:45:05;102175.00;;;10.34;100.00
65880;BME280;52661;51.364;6.054;2023-05-19T00:47:30;102178.25;;;10.40;100.00
65880;BME280;52661;51.364;6.054;2023-05-19T00:49:56;102175.44;;;10.36;100.00
65880;BME280;52661;51.364;6.054;2023-05-19T00:52:21;102171.66;;;10.25;100.00
65880;BME280;52661;51.364;6.054;2023-05-19T00:54:47;102178.16;;;10.20;100.00
65880;BME280;52661;51.364;6.054;2023-05-19T00:57:13;102166.66;;;10.11;100.00
65880;BME280;52661;51.364;6.054;2023-05-19T00:59:39;102166.88;;;10.18;100.00
65880;BME280;52661;51.364;6.054;2023-05-19T01:02:04;102168.50;;;10.07;100.00
65880;BME280;52661;51.364;6.054;2023-05-19T01:04:31;102162.88;;;10.00;100.00
65880;BME280;52661;51.364;6.054;2023-05-19T01:06:59;102164.19;;;10.06;100.00
65880;BME280;52661;51.364;6.054;2023-05-19T01:09:25;102153.88;;;10.12;100.00
65880;BME280;52661;51.364;6.054;2023-05-19T01:11:50;102163.53;;;10.25;100.00
65880;BME280;52661;51.364;6.054;2023-05-19T01:14:17;102163.38;;;10.33;100.00
65880;BME280;52661;51.364;6.054;2023-05-19T01:16:47;102160.66;;;10.33;100.00
65880;BME280;52661;51.364;6.054;2023-05-19T01:19:44;102168.59;;;10.42;100.00
65880;BME280;52661;51.364;6.054;2023-05-19T01:22:26;102165.13;;;10.42;100.00
65880;BME280;52661;51.364;6.054;2023-05-19T01:30:44;102169.56;;;10.18;100.00
65880;BME280;52661;51.364;6.054;2023-05-19T01:33:13;102164.84;;;10.15;100.00
65880;BME280;52661;51.364;6.054;2023-05-19T01:35:40;102170.47;;;10.22;100.00
65880;BME280;52661;51.364;6.054;2023-05-19T01:38:11;102171.75;;;10.28;100.00
65880;BME280;52661;51.364;6.054;2023-05-19T01:40:40;102167.47;;;10.27;100.00
65880;BME280;52661;51.364;6.054;2023-05-19T01:43:08;102174.31;;;10.21;100.00
65880;BME280;52661;51.364;6.054;2023-05-19T01:45:34;102169.63;;;10.06;100.00
65880;BME280;52661;51.364;6.054;2023-05-19T01:48:02;102172.88;;;10.12;100.00
65880;BME280;52661;51.364;6.054;2023-05-19T01:50:28;102170.38;;;10.19;100.00
65880;BME280;52661;51.364;6.054;2023-05-19T01:52:54;102177.28;;;10.16;100.00
65880;BME280;52661;51.364;6.054;2023-05-19T01:55:20;102163.16;;;10.11;100.00
65880;BME280;52661;51.364;6.054;2023-05-19T01:58:05;102161.06;;;10.04;100.00
65880;BME280;52661;51.364;6.054;2023-05-19T02:00:53;102160.09;;;9.97;100.00
65880;BME280;52661;51.364;6.054;2023-05-19T02:08:43;102164.19;;;9.91;100.00
65880;BME280;52661;51.364;6.054;2023-05-19T02:11:22;102166.91;;;9.91;100.00
65880;BME280;52661;51.364;6.054;2023-05-19T02:13:54;102162.38;;;9.95;100.00
65880;BME280;52661;51.364;6.054;2023-05-19T02:16:23;102160.25;;;9.88;100.00
65880;BME280;52661;51.364;6.054;2023-05-19T02:18:52;102155.09;;;9.83;100.00
65880;BME280;52661;51.364;6.054;2023-05-19T02:21:18;102146.25;;;9.86;100.00
65880;BME280;52661;51.364;6.054;2023-05-19T02:23:43;102147.00;;;9.71;100.00
65880;BME280;52661;51.364;6.054;2023-05-19T02:26:08;102140.19;;;9.77;100.00
65880;BME280;52661;51.364;6.054;2023-05-19T02:28:34;102137.47;;;9.77;100.00
65880;BME280;52661;51.364;6.054;2023-05-19T02:31:00;102144.06;;;9.76;100.00
65880;BME280;52661;51.364;6.054;2023-05-19T02:33:26;102140.03;;;9.85;100.00
65880;BME280;52661;51.364;6.054;2023-05-19T02:35:55;102144.47;;;9.78;100.00
65880;BME280;52661;51.364;6.054;2023-05-19T02:38:20;102140.38;;;9.84;100.00
65880;BME280;52661;51.364;6.054;2023-05-19T02:40:45;102132.75;;;9.74;100.00
65880;BME280;52661;51.364;6.054;2023-05-19T02:43:11;102140.97;;;9.77;100.00
65880;BME280;52661;51.364;6.054;2023-05-19T02:45:36;102143.28;;;9.75;100.00
65880;BME280;52661;51.364;6.054;2023-05-19T02:48:01;102147.03;;;9.86;100.00
65880;BME280;52661;51.364;6.054;2023-05-19T02:50:27;102143.28;;;9.75;100.00
65880;BME280;52661;51.364;6.054;2023-05-19T02:52:52;102149.97;;;9.66;100.00
65880;BME280;52661;51.364;6.054;2023-05-19T02:55:18;102149.00;;;9.58;100.00
65880;BME280;52661;51.364;6.054;2023-05-19T02:57:43;102145.44;;;9.70;100.00
65880;BME280;52661;51.364;6.054;2023-05-19T03:00:09;102147.09;;;9.74;100.00
65880;BME280;52661;51.364;6.054;2023-05-19T03:02:34;102144.94;;;9.80;100.00
65880;BME280;52661;51.364;6.054;2023-05-19T03:05:00;102149.47;;;9.76;100.00
65880;BME280;52661;51.364;6.054;2023-05-19T03:07:27;102141.78;;;9.78;100.00
65880;BME280;52661;51.364;6.054;2023-05-19T03:09:53;102145.63;;;9.77;100.00
65880;BME280;52661;51.364;6.054;2023-05-19T03:12:18;102143.28;;;9.75;100.00
65880;BME280;52661;51.364;6.054;2023-05-19T03:14:43;102145.44;;;9.70;100.00
65880;BME280;52661;51.364;6.054;2023-05-19T03:17:09;102142.28;;;9.68;100.00
65880;BME280;52661;51.364;6.054;2023-05-19T03:19:34;102142.19;;;9.64;100.00
65880;BME280;52661;51.364;6.054;2023-05-19T03:22:00;102143.41;;;9.51;100.00
65880;BME280;52661;51.364;6.054;2023-05-19T03:24:25;102137.00;;;9.44;100.00
65880;BME280;52661;51.364;6.054;2023-05-19T03:26:51;102143.72;;;9.50;100.00
65880;BME280;52661;51.364;6.054;2023-05-19T03:29:16;102142.06;;;9.45;100.00
65880;BME280;52661;51.364;6.054;2023-05-19T03:31:41;102139.34;;;9.45;100.00
65880;BME280;52661;51.364;6.054;2023-05-19T03:34:07;102145.38;;;9.38;100.00
65880;BME280;52661;51.364;6.054;2023-05-19T03:36:32;102150.28;;;9.49;100.00
65880;BME280;52661;51.364;6.054;2023-05-19T03:39:04;102148.13;;;9.54;100.00
65880;BME280;52661;51.364;6.054;2023-05-19T03:41:30;102150.88;;;9.42;100.00
65880;BME280;52661;51.364;6.054;2023-05-19T03:43:55;102148.16;;;9.42;100.00
65880;BME280;52661;51.364;6.054;2023-05-19T03:46:21;102153.09;;;9.52;100.00
65880;BME280;52661;51.364;6.054;2023-05-19T03:48:46;102150.88;;;9.42;100.00
65880;BME280;52661;51.364;6.054;2023-05-19T03:51:11;102143.09;;;9.40;100.00
65880;BME280;52661;51.364;6.054;2023-05-19T03:53:37;102147.38;;;9.42;100.00
65880;BME280;52661;51.364;6.054;2023-05-19T03:56:03;102140.69;;;9.23;100.00
65880;BME280;52661;51.364;6.054;2023-05-19T03:58:28;102142.59;;;9.23;100.00
65880;BME280;52661;51.364;6.054;2023-05-19T04:00:54;102143.97;;;9.17;100.00
65880;BME280;52661;51.364;6.054;2023-05-19T04:03:20;102149.53;;;9.08;100.00
65880;BME280;52661;51.364;6.054;2023-05-19T04:05:45;102155.00;;;9.24;100.00
65880;BME280;52661;51.364;6.054;2023-05-19T04:08:10;102150.69;;;9.35;100.00
65880;BME280;52661;51.364;6.054;2023-05-19T04:10:36;102154.53;;;9.34;100.00
65880;BME280;52661;51.364;6.054;2023-05-19T04:13:01;102159.16;;;9.33;100.00
65880;BME280;52661;51.364;6.054;2023-05-19T04:15:27;102170.44;;;9.35;100.00
65880;BME280;52661;51.364;6.054;2023-05-19T04:17:52;102165.81;;;9.36;100.00
65880;BME280;52661;51.364;6.054;2023-05-19T04:20:18;102164.72;;;9.25;100.00
65880;BME280;52661;51.364;6.054;2023-05-19T04:22:43;102162.41;;;9.39;100.00
65880;BME280;52661;51.364;6.054;2023-05-19T04:25:09;102170.09;;;9.37;100.00
65880;BME280;52661;51.364;6.054;2023-05-19T04:27:34;102165.94;;;9.27;100.00
65880;BME280;52661;51.364;6.054;2023-05-19T04:30:03;102171.34;;;9.39;100.00
65880;BME280;52661;51.364;6.054;2023-05-19T04:32:30;102169.75;;;9.38;100.00
65880;BME280;52661;51.364;6.054;2023-05-19T04:34:56;102165.13;;;9.39;100.00
65880;BME280;52661;51.364;6.054;2023-05-19T04:37:24;102158.41;;;9.21;100.00
65880;BME280;52661;51.364;6.054;2023-05-19T04:39:50;102161.75;;;9.30;100.00
65880;BME280;52661;51.364;6.054;2023-05-19T04:42:16;102156.69;;;9.28;100.00
65880;BME280;52661;51.364;6.054;2023-05-19T04:44:44;102168.56;;;9.24;100.00
65880;BME280;52661;51.364;6.054;2023-05-19T04:47:09;102164.25;;;9.23;100.00
65880;BME280;52661;51.364;6.054;2023-05-19T04:49:35;102165.53;;;9.25;100.00
65880;BME280;52661;51.364;6.054;2023-05-19T04:52:07;102157.22;;;9.34;100.00
65880;BME280;52661;51.364;6.054;2023-05-19T04:54:35;102157.19;;;9.46;100.00
65880;BME280;52661;51.364;6.054;2023-05-19T04:57:01;102157.72;;;9.52;100.00
65880;BME280;52661;51.364;6.054;2023-05-19T04:59:26;102156.09;;;9.63;100.00
65880;BME280;52661;51.364;6.054;2023-05-19T05:01:51;102155.00;;;9.52;100.00
65880;BME280;52661;51.364;6.054;2023-05-19T05:04:17;102161.06;;;9.61;100.00
65880;BME280;52661;51.364;6.054;2023-05-19T05:06:43;102158.09;;;9.66;100.00
65880;BME280;52661;51.364;6.054;2023-05-19T05:09:13;102163.38;;;9.74;100.00
65880;BME280;52661;51.364;6.054;2023-05-19T05:11:38;102156.81;;;9.75;100.00
65880;BME280;52661;51.364;6.054;2023-05-19T05:14:04;102155.25;;;9.74;100.00
65880;BME280;52661;51.364;6.054;2023-05-19T05:16:30;102155.69;;;9.76;100.00
65880;BME280;52661;51.364;6.054;2023-05-19T05:18:56;102161.28;;;9.68;100.00
65880;BME280;52661;51.364;6.054;2023-05-19T05:21:22;102161.78;;;9.73;100.00
65880;BME280;52661;51.364;6.054;2023-05-19T05:23:49;102152.00;;;9.84;100.00
65880;BME280;52661;51.364;6.054;2023-05-19T05:26:19;102159.66;;;9.95;100.00
65880;BME280;52661;51.364;6.054;2023-05-19T05:28:47;102159.47;;;10.03;100.00
65880;BME280;52661;51.364;6.054;2023-05-19T05:31:12;102155.81;;;10.11;100.00
65880;BME280;52661;51.364;6.054;2023-05-19T05:33:38;102155.59;;;10.16;100.00
65880;BME280;52661;51.364;6.054;2023-05-19T05:36:03;102155.38;;;10.25;100.00
65880;BME280;52661;51.364;6.054;2023-05-19T05:38:29;102153.22;;;10.30;100.00
65880;BME280;52661;51.364;6.054;2023-05-19T05:40:55;102157.22;;;10.21;100.00
65880;BME280;52661;51.364;6.054;2023-05-19T05:43:20;102151.25;;;10.31;100.00
65880;BME280;52661;51.364;6.054;2023-05-19T05:45:45;102145.16;;;10.34;100.00
65880;BME280;52661;51.364;6.054;2023-05-19T05:48:11;102137.91;;;10.38;100.00
65880;BME280;52661;51.364;6.054;2023-05-19T05:50:37;102146.69;;;10.51;100.00
65880;BME280;52661;51.364;6.054;2023-05-19T05:53:04;102140.06;;;10.48;100.00
65880;BME280;52661;51.364;6.054;2023-05-19T05:55:30;102145.66;;;10.55;100.00
65880;BME280;52661;51.364;6.054;2023-05-19T05:57:56;102141.44;;;10.58;100.00
65880;BME280;52661;51.364;6.054;2023-05-19T06:00:22;102140.97;;;10.71;100.00
65880;BME280;52661;51.364;6.054;2023-05-19T06:02:49;102142.19;;;10.74;100.00
65880;BME280;52661;51.364;6.054;2023-05-19T06:05:15;102145.75;;;10.78;100.00
65880;BME280;52661;51.364;6.054;2023-05-19T06:07:41;102149.78;;;10.84;100.00
65880;BME280;52661;51.364;6.054;2023-05-19T06:10:07;102157.03;;;10.96;100.00
65880;BME280;52661;51.364;6.054;2023-05-19T06:12:33;102160.31;;;11.05;100.00
65880;BME280;52661;51.364;6.054;2023-05-19T06:15:00;102151.59;;;11.15;100.00
65880;BME280;52661;51.364;6.054;2023-05-19T06:17:25;102163.53;;;11.29;100.00
65880;BME280;52661;51.364;6.054;2023-05-19T06:19:50;102166.41;;;11.36;100.00
65880;BME280;52661;51.364;6.054;2023-05-19T06:22:16;102158.03;;;11.45;100.00
65880;BME280;52661;51.364;6.054;2023-05-19T06:24:41;102158.19;;;11.52;100.00
65880;BME280;52661;51.364;6.054;2023-05-19T06:27:07;102159.16;;;11.63;100.00
65880;BME280;52661;51.364;6.054;2023-05-19T06:29:32;102155.09;;;11.73;100.00
65880;BME280;52661;51.364;6.054;2023-05-19T06:31:58;102165.75;;;11.81;100.00
65880;BME280;52661;51.364;6.054;2023-05-19T06:34:23;102158.50;;;11.89;100.00
65880;BME280;52661;51.364;6.054;2023-05-19T06:36:48;102163.50;;;11.87;100.00
65880;BME280;52661;51.364;6.054;2023-05-19T06:39:14;102162.50;;;11.95;100.00
65880;BME280;52661;51.364;6.054;2023-05-19T06:41:39;102158.97;;;11.95;100.00
65880;BME280;52661;51.364;6.054;2023-05-19T06:44:05;102153.91;;;11.93;100.00
65880;BME280;52661;51.364;6.054;2023-05-19T06:46:31;102157.34;;;11.90;100.00
65880;BME280;52661;51.364;6.054;2023-05-19T06:48:56;102147.00;;;11.99;100.00
65880;BME280;52661;51.364;6.054;2023-05-19T06:51:22;102152.22;;;12.08;100.00
65880;BME280;52661;51.364;6.054;2023-05-19T06:53:47;102151.59;;;12.18;100.00
65880;BME280;52661;51.364;6.054;2023-05-19T06:56:13;102149.00;;;12.25;100.00
65880;BME280;52661;51.364;6.054;2023-05-19T06:58:40;102151.72;;;12.25;100.00
65880;BME280;52661;51.364;6.054;2023-05-19T07:01:05;102155.88;;;12.42;100.00
65880;BME280;52661;51.364;6.054;2023-05-19T07:03:30;102161.53;;;12.56;100.00
65880;BME280;52661;51.364;6.054;2023-05-19T07:05:56;102156.72;;;12.72;100.00
65880;BME280;52661;51.364;6.054;2023-05-19T07:08:21;102153.03;;;12.87;100.00
65880;BME280;52661;51.364;6.054;2023-05-19T07:10:47;102153.91;;;12.95;100.00
65880;BME280;52661;51.364;6.054;2023-05-19T07:13:12;102152.53;;;13.08;100.00
65880;BME280;52661;51.364;6.054;2023-05-19T07:15:37;102156.16;;;13.15;100.00
65880;BME280;52661;51.364;6.054;2023-05-19T07:18:02;102158.69;;;13.31;100.00
65880;BME280;52661;51.364;6.054;2023-05-19T07:20:28;102156.00;;;13.35;100.00
65880;BME280;52661;51.364;6.054;2023-05-19T07:22:53;102154.50;;;13.41;100.00
65880;BME280;52661;51.364;6.054;2023-05-19T07:25:19;102158.84;;;13.45;100.00
65880;BME280;52661;51.364;6.054;2023-05-19T07:27:44;102141.75;;;13.48;99.33
65880;BME280;52661;51.364;6.054;2023-05-19T07:30:10;102147.50;;;13.43;96.20
65880;BME280;52661;51.364;6.054;2023-05-19T07:32:36;102155.75;;;13.47;98.52
65880;BME280;52661;51.364;6.054;2023-05-19T07:35:01;102149.19;;;13.51;99.71
65880;BME280;52661;51.364;6.054;2023-05-19T07:37:27;102148.84;;;13.56;99.58
65880;BME280;52661;51.364;6.054;2023-05-19T07:39:52;102147.19;;;13.48;97.48
65880;BME280;52661;51.364;6.054;2023-05-19T07:42:17;102153.81;;;13.47;97.00
65880;BME280;52661;51.364;6.054;2023-05-19T07:44:43;102153.94;;;13.61;98.52
65880;BME280;52661;51.364;6.054;2023-05-19T07:47:08;102158.28;;;13.66;97.33
65880;BME280;52661;51.364;6.054;2023-05-19T07:49:33;102156.78;;;13.72;98.35
65880;BME280;52661;51.364;6.054;2023-05-19T07:51:59;102154.50;;;13.74;91.11
65880;BME280;52661;51.364;6.054;2023-05-19T07:54:24;102153.47;;;13.93;97.66
65880;BME280;52661;51.364;6.054;2023-05-19T07:56:50;102157.16;;;14.11;95.57
65880;BME280;52661;51.364;6.054;2023-05-19T07:59:15;102153.28;;;14.15;88.40
65880;BME280;52661;51.364;6.054;2023-05-19T08:01:41;102158.44;;;14.24;90.02
65880;BME280;52661;51.364;6.054;2023-05-19T08:04:06;102147.94;;;14.29;92.24
65880;BME280;52661;51.364;6.054;2023-05-19T08:06:32;102153.16;;;14.45;92.98
65880;BME280;52661;51.364;6.054;2023-05-19T08:08:57;102151.25;;;14.49;91.86
65880;BME280;52661;51.364;6.054;2023-05-19T08:11:22;102151.31;;;14.60;88.72
65880;BME280;52661;51.364;6.054;2023-05-19T08:13:48;102149.78;;;14.66;84.19
65880;BME280;52661;51.364;6.054;2023-05-19T08:16:14;102149.81;;;14.73;86.87
65880;BME280;52661;51.364;6.054;2023-05-19T08:18:39;102147.97;;;14.91;91.92
65880;BME280;52661;51.364;6.054;2023-05-19T08:21:05;102155.91;;;15.14;89.10
65880;BME280;52661;51.364;6.054;2023-05-19T08:23:30;102139.13;;;15.22;87.39
65880;BME280;52661;51.364;6.054;2023-05-19T08:25:56;102143.06;;;15.28;84.25
65880;BME280;52661;51.364;6.054;2023-05-19T08:28:21;102151.28;;;15.36;82.70
65880;BME280;52661;51.364;6.054;2023-05-19T08:30:46;102141.16;;;15.43;86.15
65880;BME280;52661;51.364;6.054;2023-05-19T08:33:12;102136.47;;;15.47;85.00
65880;BME280;52661;51.364;6.054;2023-05-19T08:35:37;102134.56;;;15.55;87.93
65880;BME280;52661;51.364;6.054;2023-05-19T08:38:02;102143.97;;;15.61;81.14
65880;BME280;52661;51.364;6.054;2023-05-19T08:40:28;102128.31;;;15.58;79.94
65880;BME280;52661;51.364;6.054;2023-05-19T08:42:55;102133.00;;;15.64;80.42
65880;BME280;52661;51.364;6.054;2023-05-19T08:45:21;102125.97;;;15.70;78.24
65880;BME280;52661;51.364;6.054;2023-05-19T08:47:47;102121.69;;;15.77;81.15
65880;BME280;52661;51.364;6.054;2023-05-19T08:50:16;102106.81;;;15.74;74.97
65880;BME280;52661;51.364;6.054;2023-05-19T08:55:17;102104.88;;;15.85;79.31
65880;BME280;52661;51.364;6.054;2023-05-19T08:57:47;102110.34;;;15.92;77.44
65880;BME280;52661;51.364;6.054;2023-05-19T09:00:14;102105.66;;;16.10;69.85
65880;BME280;52661;51.364;6.054;2023-05-19T09:02:40;102105.66;;;16.17;72.42
65880;BME280;52661;51.364;6.054;2023-05-19T09:05:07;102102.13;;;16.17;72.90
65880;BME280;52661;51.364;6.054;2023-05-19T09:07:34;102099.78;;;16.30;73.24
65880;BME280;52661;51.364;6.054;2023-05-19T09:10:00;102095.47;;;16.29;74.33
65880;BME280;52661;51.364;6.054;2023-05-19T09:12:26;102099.38;;;16.35;72.04
65880;BME280;52661;51.364;6.054;2023-05-19T09:14:52;102098.97;;;16.36;71.53
65880;BME280;52661;51.364;6.054;2023-05-19T09:17:17;102091.50;;;16.51;73.91
65880;BME280;52661;51.364;6.054;2023-05-19T09:19:43;102098.56;;;16.52;68.96
65880;BME280;52661;51.364;6.054;2023-05-19T09:22:13;102101.31;;;16.48;72.45
65880;BME280;52661;51.364;6.054;2023-05-19T09:24:40;102091.13;;;16.59;72.20
65880;BME280;52661;51.364;6.054;2023-05-19T09:27:05;102087.19;;;16.64;71.26
65880;BME280;52661;51.364;6.054;2023-05-19T09:29:31;102096.16;;;16.71;75.22
65880;BME280;52661;51.364;6.054;2023-05-19T09:31:56;102100.88;;;16.78;76.83
65880;BME280;52661;51.364;6.054;2023-05-19T09:34:28;102091.06;;;16.77;75.99
65880;BME280;52661;51.364;6.054;2023-05-19T09:36:53;102083.63;;;16.81;72.55
65880;BME280;52661;51.364;6.054;2023-05-19T09:39:20;102094.59;;;16.81;76.43
65880;BME280;52661;51.364;6.054;2023-05-19T09:41:46;102087.13;;;16.85;75.05
65880;BME280;52661;51.364;6.054;2023-05-19T09:44:21;102077.81;;;16.58;67.23
65880;BME280;52661;51.364;6.054;2023-05-19T09:46:52;102080.53;;;16.61;72.69
65880;BME280;52661;51.364;6.054;2023-05-19T09:49:22;102080.94;;;16.67;75.35
65880;BME280;52661;51.364;6.054;2023-05-19T09:51:49;102081.63;;;16.92;74.12
65880;BME280;52661;51.364;6.054;2023-05-19T09:54:15;102076.16;;;16.89;68.30
65880;BME280;52661;51.364;6.054;2023-05-19T09:56:40;102066.00;;;16.75;71.09
65880;BME280;52661;51.364;6.054;2023-05-19T09:59:06;102074.19;;;16.93;71.65
65880;BME280;52661;51.364;6.054;2023-05-19T10:01:32;102070.09;;;17.18;73.84
65880;BME280;52661;51.364;6.054;2023-05-19T10:03:58;102073.09;;;17.42;72.47
65880;BME280;52661;51.364;6.054;2023-05-19T10:06:24;102072.72;;;17.43;70.61
65880;BME280;52661;51.364;6.054;2023-05-19T10:08:50;102070.69;;;17.47;69.77
65880;BME280;52661;51.364;6.054;2023-05-19T10:11:16;102078.66;;;17.35;66.83
65880;BME280;52661;51.364;6.054;2023-05-19T10:13:44;102061.56;;;17.06;64.34
65880;BME280;52661;51.364;6.054;2023-05-19T10:16:12;102072.56;;;17.02;64.27
65880;BME280;52661;51.364;6.054;2023-05-19T10:18:38;102065.41;;;17.19;69.51
65880;BME280;52661;51.364;6.054;2023-05-19T10:21:04;102078.78;;;17.13;65.22
65880;BME280;52661;51.364;6.054;2023-05-19T10:23:30;102081.84;;;17.22;71.01
65880;BME280;52661;51.364;6.054;2023-05-19T10:25:57;102077.19;;;17.12;64.56
65880;BME280;52661;51.364;6.054;2023-05-19T10:28:33;102069.88;;;16.88;62.12
65880;BME280;52661;51.364;6.054;2023-05-19T10:31:00;102066.25;;;17.05;68.54
65880;BME280;52661;51.364;6.054;2023-05-19T10:38:59;102062.03;;;17.59;66.14
65880;BME280;52661;51.364;6.054;2023-05-19T10:44:45;102057.31;;;17.60;61.73
65880;BME280;52661;51.364;6.054;2023-05-19T10:47:22;102053.69;;;17.74;63.73
65880;BME280;52661;51.364;6.054;2023-05-19T10:49:47;102042.63;;;17.81;60.36
65880;BME280;52661;51.364;6.054;2023-05-19T10:52:22;102050.50;;;18.23;61.54
65880;BME280;52661;51.364;6.054;2023-05-19T10:54:53;102051.88;;;18.38;60.25
65880;BME280;52661;51.364;6.054;2023-05-19T10:57:24;102049.59;;;18.33;60.84
65880;BME280;52661;51.364;6.054;2023-05-19T10:59:56;102050.00;;;18.32;59.59
65880;BME280;52661;51.364;6.054;2023-05-19T11:02:43;102048.91;;;18.22;59.01
65880;BME280;52661;51.364;6.054;2023-05-19T11:05:13;102048.38;;;18.34;58.33
65880;BME280;52661;51.364;6.054;2023-05-19T11:07:53;102056.97;;;18.40;58.04
65880;BME280;52661;51.364;6.054;2023-05-19T11:10:23;102048.72;;;18.40;59.43
65880;BME280;52661;51.364;6.054;2023-05-19T11:12:49;102043.94;;;18.51;59.41
65880;BME280;52661;51.364;6.054;2023-05-19T11:15:15;102053.16;;;18.30;55.81
65880;BME280;52661;51.364;6.054;2023-05-19T11:17:41;102046.53;;;18.24;57.83
65880;BME280;52661;51.364;6.054;2023-05-19T11:20:28;102046.56;;;18.20;55.27
65880;BME280;52661;51.364;6.054;2023-05-19T11:23:04;102042.13;;;18.34;61.03
65880;BME280;52661;51.364;6.054;2023-05-19T11:25:50;102045.28;;;18.32;56.97
65880;BME280;52661;51.364;6.054;2023-05-19T11:28:19;102049.41;;;18.51;57.37
65880;BME280;52661;51.364;6.054;2023-05-19T11:30:46;102039.78;;;18.32;54.84
65880;BME280;52661;51.364;6.054;2023-05-19T11:33:15;102039.13;;;18.58;61.54
65880;BME280;52661;51.364;6.054;2023-05-19T11:35:44;102047.59;;;18.71;55.16
65880;BME280;52661;51.364;6.054;2023-05-19T11:38:10;102046.38;;;18.76;58.07
65880;BME280;52661;51.364;6.054;2023-05-19T11:40:37;102039.78;;;18.70;52.54
65880;BME280;52661;51.364;6.054;2023-05-19T11:43:03;102032.88;;;18.85;60.62
65880;BME280;52661;51.364;6.054;2023-05-19T11:45:30;102042.31;;;19.14;58.08
65880;BME280;52661;51.364;6.054;2023-05-19T11:47:59;102034.31;;;18.96;56.45
65880;BME280;52661;51.364;6.054;2023-05-19T11:50:25;102029.72;;;19.16;58.63
65880;BME280;52661;51.364;6.054;2023-05-19T11:52:51;102034.78;;;19.18;53.68
65880;BME280;52661;51.364;6.054;2023-05-19T11:55:18;102030.06;;;19.18;55.34
65880;BME280;52661;51.364;6.054;2023-05-19T11:58:02;102024.44;;;19.26;55.91
65880;BME280;52661;51.364;6.054;2023-05-19T12:00:29;102027.47;;;19.35;53.95
65880;BME280;52661;51.364;6.054;2023-05-19T12:02:55;102017.78;;;19.50;58.34
65880;BME280;52661;51.364;6.054;2023-05-19T12:05:24;102007.63;;;19.47;53.57
65880;BME280;52661;51.364;6.054;2023-05-19T12:07:51;102011.94;;;19.48;54.49
65880;BME280;52661;51.364;6.054;2023-05-19T12:10:27;102006.72;;;19.00;48.19
65880;BME280;52661;51.364;6.054;2023-05-19T12:12:53;101995.16;;;19.12;52.89
65880;BME280;52661;51.364;6.054;2023-05-19T12:15:20;102010.69;;;19.26;49.65
65880;BME280;52661;51.364;6.054;2023-05-19T12:17:58;101996.63;;;19.20;51.55
65880;BME280;52661;51.364;6.054;2023-05-19T12:20:25;101999.09;;;19.11;49.32
65880;BME280;52661;51.364;6.054;2023-05-19T12:22:54;102002.47;;;19.22;51.10
65880;BME280;52661;51.364;6.054;2023-05-19T12:25:20;101998.25;;;19.41;57.24
65880;BME280;52661;51.364;6.054;2023-05-19T12:27:45;101995.56;;;19.37;52.13
65880;BME280;52661;51.364;6.054;2023-05-19T12:30:13;101992.13;;;19.56;53.45
65880;BME280;52661;51.364;6.054;2023-05-19T12:32:38;101985.78;;;19.09;51.72
65880;BME280;52661;51.364;6.054;2023-05-19T12:35:04;101984.34;;;19.51;55.17
65880;BME280;52661;51.364;6.054;2023-05-19T12:37:31;101986.44;;;19.67;52.46
65880;BME280;52661;51.364;6.054;2023-05-19T12:40:01;101986.13;;;19.85;54.34
65880;BME280;52661;51.364;6.054;2023-05-19T12:42:28;101987.28;;;19.64;50.90
65880;BME280;52661;51.364;6.054;2023-05-19T12:45:00;101982.25;;;19.82;54.18
65880;BME280;52661;51.364;6.054;2023-05-19T12:47:34;101988.63;;;19.99;53.16
65880;BME280;52661;51.364;6.054;2023-05-19T12:50:07;101988.09;;;19.61;48.57
65880;BME280;52661;51.364;6.054;2023-05-19T12:52:55;101979.03;;;19.37;48.62
65880;BME280;52661;51.364;6.054;2023-05-19T12:55:20;101963.50;;;19.50;50.11
65880;BME280;52661;51.364;6.054;2023-05-19T12:57:49;101974.53;;;19.74;53.34
65880;BME280;52661;51.364;6.054;2023-05-19T13:00:24;101977.66;;;19.52;48.93
65880;BME280;52661;51.364;6.054;2023-05-19T13:05:30;101972.03;;;19.79;53.69
65880;BME280;52661;51.364;6.054;2023-05-19T13:07:59;101973.22;;;20.01;49.04
65880;BME280;52661;51.364;6.054;2023-05-19T13:10:27;101966.75;;;20.31;51.91
65880;BME280;52661;51.364;6.054;2023-05-19T13:12:54;101971.41;;;20.34;52.22